createdAt,value
2022-07-31T00:00:44.231Z,4.68
2022-07-31T00:01:45.929Z,5.05
2022-07-31T00:02:47.913Z,5.25
2022-07-31T00:03:49.668Z,4.57
2022-07-31T00:04:51.431Z,4.43
2022-07-31T00:05:53.892Z,4.50
2022-07-31T00:06:56.436Z,5.70
2022-07-31T00:07:58.858Z,4.60
2022-07-31T00:09:00.574Z,5.68
2022-07-31T00:10:02.638Z,3.97
2022-07-31T00:11:04.372Z,4.00
2022-07-31T00:12:06.926Z,3.97
2022-07-31T00:13:08.709Z,5.13
2022-07-31T00:14:12.533Z,4.68
2022-07-31T00:15:14.267Z,4.57
2022-07-31T00:16:17.287Z,5.60
2022-07-31T00:17:19.193Z,5.97
2022-07-31T00:18:20.887Z,5.50
2022-07-31T00:19:22.803Z,4.88
2022-07-31T00:20:24.546Z,4.65
2022-07-31T00:21:26.394Z,3.97
2022-07-31T00:22:28.134Z,4.93
2022-07-31T00:23:30.211Z,4.82
2022-07-31T00:24:31.953Z,4.50
2022-07-31T00:25:33.710Z,5.70
2022-07-31T00:26:35.438Z,4.30
2022-07-31T00:27:37.177Z,6.30
2022-07-31T00:28:38.894Z,4.30
2022-07-31T00:29:40.659Z,4.28
2022-07-31T00:30:42.363Z,5.03
2022-07-31T00:31:44.159Z,4.57
2022-07-31T00:32:46.698Z,4.30
2022-07-31T00:33:50.578Z,4.65
2022-07-31T00:34:52.665Z,5.45
2022-07-31T00:35:54.552Z,4.53
2022-07-31T00:36:56.290Z,5.20
2022-07-31T00:38:25.701Z,5.22
2022-07-31T00:39:20.669Z,4.30
2022-07-31T00:40:22.439Z,4.70
2022-07-31T00:41:24.249Z,4.68
2022-07-31T00:42:26.568Z,4.80
2022-07-31T00:43:30.751Z,5.00
2022-07-31T00:44:32.823Z,6.10
2022-07-31T00:45:34.986Z,4.75
2022-07-31T00:46:40.262Z,4.45
2022-07-31T00:47:42.848Z,5.47
2022-07-31T00:48:46.003Z,4.18
2022-07-31T00:49:47.802Z,6.45
2022-07-31T00:50:50.968Z,3.90
2022-07-31T00:51:52.664Z,3.95
2022-07-31T00:52:54.898Z,4.10
2022-07-31T00:53:56.666Z,5.07
2022-07-31T00:54:58.368Z,4.53
2022-07-31T00:56:00.197Z,5.03
2022-07-31T00:57:03.431Z,5.30
2022-07-31T00:58:05.402Z,4.50
2022-07-31T00:59:07.112Z,4.68
2022-07-31T01:00:09.475Z,5.20
2022-07-31T01:01:11.468Z,4.22
2022-07-31T01:02:13.264Z,4.63
2022-07-31T01:03:15.445Z,4.97
2022-07-31T01:04:18.990Z,4.90
2022-07-31T01:05:21.656Z,5.70
2022-07-31T01:06:23.397Z,5.38
2022-07-31T01:07:25.905Z,4.43
2022-07-31T01:08:27.728Z,4.30
2022-07-31T01:09:29.928Z,3.97
2022-07-31T01:10:44.980Z,4.65
2022-07-31T01:12:13.108Z,4.25
2022-07-31T01:13:25.112Z,4.55
2022-07-31T01:14:32.383Z,6.25
2022-07-31T01:15:36.970Z,4.95
2022-07-31T01:16:43.161Z,4.72
2022-07-31T01:17:48.524Z,5.25
2022-07-31T01:18:52.437Z,8.05
2022-07-31T01:19:54.915Z,3.92
2022-07-31T01:21:00.431Z,7.57
2022-07-31T01:22:33.478Z,5.32
2022-07-31T01:23:54.797Z,5.25
2022-07-31T01:25:05.756Z,4.75
2022-07-31T01:26:30.655Z,5.47
2022-07-31T01:27:49.247Z,5.03
2022-07-31T01:29:00.786Z,5.32
2022-07-31T01:30:04.324Z,4.60
2022-07-31T01:31:27.487Z,4.65
2022-07-31T01:32:35.539Z,5.53
2022-07-31T01:33:49.362Z,8.80
2022-07-31T01:35:14.076Z,5.05
2022-07-31T01:36:22.790Z,5.90
2022-07-31T01:37:30.803Z,4.63
2022-07-31T01:38:36.694Z,8.82
2022-07-31T01:39:43.025Z,4.65
2022-07-31T01:40:48.244Z,7.55
2022-07-31T01:41:51.523Z,4.97
2022-07-31T01:43:03.464Z,5.13
2022-07-31T01:44:07.225Z,5.25
2022-07-31T01:45:17.038Z,5.38
2022-07-31T01:46:21.172Z,5.97
2022-07-31T01:47:25.159Z,4.82
2022-07-31T01:48:27.441Z,4.85
2022-07-31T01:49:31.422Z,6.97
2022-07-31T01:50:42.934Z,6.55
2022-07-31T01:51:46.916Z,5.40
2022-07-31T01:52:49.939Z,4.65
2022-07-31T01:53:53.517Z,4.95
2022-07-31T01:54:57.017Z,4.60
2022-07-31T01:56:03.460Z,4.50
2022-07-31T01:57:07.304Z,5.03
2022-07-31T01:58:10.170Z,4.30
2022-07-31T01:59:20.308Z,4.97
2022-07-31T02:00:33.877Z,4.82
2022-07-31T02:01:40.102Z,5.43
2022-07-31T02:02:44.019Z,6.22
2022-07-31T02:03:51.305Z,5.70
2022-07-31T02:04:55.370Z,5.05
2022-07-31T02:06:00.847Z,5.38
2022-07-31T02:07:05.951Z,5.32
2022-07-31T02:08:10.898Z,6.50
2022-07-31T02:09:14.305Z,6.45
2022-07-31T02:10:18.241Z,4.85
2022-07-31T02:11:20.547Z,7.72
2022-07-31T02:12:33.869Z,6.25
2022-07-31T02:13:37.462Z,5.15
2022-07-31T02:14:43.656Z,5.40
2022-07-31T02:15:47.061Z,5.88
2022-07-31T02:16:50.058Z,5.85
2022-07-31T02:17:52.573Z,5.60
2022-07-31T02:18:55.500Z,7.07
2022-07-31T02:20:00.753Z,4.90
2022-07-31T02:21:02.654Z,5.55
2022-07-31T02:22:05.188Z,5.55
2022-07-31T02:23:07.894Z,5.45
2022-07-31T02:24:09.770Z,4.78
2022-07-31T02:25:12.201Z,5.10
2022-07-31T02:26:16.845Z,5.15
2022-07-31T02:27:53.826Z,4.95
2022-07-31T02:28:43.870Z,4.68
2022-07-31T02:29:46.695Z,5.10
2022-07-31T02:30:49.491Z,4.93
2022-07-31T02:32:01.832Z,5.32
2022-07-31T02:33:07.055Z,5.78
2022-07-31T02:34:08.771Z,8.27
2022-07-31T02:35:12.383Z,4.80
2022-07-31T02:36:16.283Z,7.35
2022-07-31T02:37:18.748Z,5.40
2022-07-31T02:38:23.743Z,6.43
2022-07-31T02:39:30.456Z,5.90
2022-07-31T02:40:32.752Z,5.45
2022-07-31T02:41:36.539Z,5.10
2022-07-31T02:42:40.028Z,5.30
2022-07-31T02:43:42.828Z,9.25
2022-07-31T02:44:44.998Z,5.13
2022-07-31T02:45:47.125Z,6.68
2022-07-31T02:46:49.196Z,6.13
2022-07-31T02:47:51.393Z,5.95
2022-07-31T02:48:53.807Z,5.70
2022-07-31T02:49:57.936Z,4.97
2022-07-31T02:51:00.030Z,6.13
2022-07-31T02:52:02.652Z,6.45
2022-07-31T02:53:04.882Z,5.57
2022-07-31T02:54:06.977Z,7.72
2022-07-31T02:55:09.534Z,5.53
2022-07-31T02:56:11.996Z,5.65
2022-07-31T02:57:14.230Z,6.05
2022-07-31T02:58:16.042Z,6.15
2022-07-31T02:59:17.902Z,6.00
2022-07-31T03:00:23.915Z,5.68
2022-07-31T03:01:25.838Z,5.57
2022-07-31T03:02:34.674Z,5.70
2022-07-31T03:03:39.578Z,6.20
2022-07-31T03:04:41.352Z,5.80
2022-07-31T03:05:43.064Z,6.43
2022-07-31T03:06:44.793Z,7.70
2022-07-31T03:07:48.322Z,5.53
2022-07-31T03:08:50.125Z,6.28
2022-07-31T03:09:51.837Z,5.45
2022-07-31T03:10:53.741Z,5.97
2022-07-31T03:11:55.460Z,5.65
2022-07-31T03:12:58.365Z,5.72
2022-07-31T03:14:01.907Z,5.78
2022-07-31T03:15:04.402Z,5.47
2022-07-31T03:16:08.626Z,5.85
2022-07-31T03:17:11.209Z,5.95
2022-07-31T03:18:16.230Z,6.60
2022-07-31T03:19:19.689Z,9.45
2022-07-31T03:20:24.445Z,5.47
2022-07-31T03:21:26.238Z,6.00
2022-07-31T03:22:28.033Z,6.45
2022-07-31T03:23:50.674Z,6.18
2022-07-31T03:24:53.670Z,5.97
2022-07-31T03:25:56.065Z,6.22
2022-07-31T03:26:57.906Z,5.95
2022-07-31T03:28:00.216Z,6.88
2022-07-31T03:29:01.950Z,6.05
2022-07-31T03:30:04.999Z,5.75
2022-07-31T03:31:07.992Z,6.10
2022-07-31T03:32:09.791Z,7.75
2022-07-31T03:33:11.623Z,6.22
2022-07-31T03:34:13.818Z,6.18
2022-07-31T03:35:15.504Z,6.07
2022-07-31T03:36:17.667Z,6.45
2022-07-31T03:37:19.368Z,6.00
2022-07-31T03:38:41.844Z,6.53
2022-07-31T03:39:43.058Z,6.00
2022-07-31T03:40:44.856Z,6.45
2022-07-31T03:41:46.648Z,6.97
2022-07-31T03:42:49.934Z,7.75
2022-07-31T03:43:52.767Z,6.28
2022-07-31T03:44:55.270Z,6.80
2022-07-31T03:46:01.885Z,6.07
2022-07-31T03:47:04.353Z,6.72
2022-07-31T03:48:08.738Z,6.47
2022-07-31T03:49:10.605Z,7.43
2022-07-31T03:50:12.879Z,6.30
2022-07-31T03:51:15.631Z,6.88
2022-07-31T03:52:17.792Z,7.10
2022-07-31T03:53:19.915Z,6.57
2022-07-31T03:54:21.690Z,6.88
2022-07-31T03:55:23.843Z,6.28
2022-07-31T03:56:25.904Z,6.50
2022-07-31T03:57:33.997Z,6.65
2022-07-31T03:58:36.770Z,6.45
2022-07-31T03:59:47.961Z,6.68
2022-07-31T04:00:51.048Z,7.03
2022-07-31T04:01:57.477Z,7.00
2022-07-31T04:03:09.055Z,6.72
2022-07-31T04:04:11.697Z,6.22
2022-07-31T04:05:13.435Z,6.53
2022-07-31T04:06:15.177Z,7.07
2022-07-31T04:07:17.462Z,10.63
2022-07-31T04:08:19.175Z,7.10
2022-07-31T04:09:20.888Z,7.70
2022-07-31T04:10:22.688Z,5.82
2022-07-31T04:11:24.389Z,6.72
2022-07-31T04:12:26.163Z,6.47
2022-07-31T04:13:28.409Z,6.68
2022-07-31T04:14:30.247Z,6.10
2022-07-31T04:15:32.754Z,8.98
2022-07-31T04:16:34.463Z,6.78
2022-07-31T04:17:36.175Z,7.85
2022-07-31T04:18:37.934Z,6.45
2022-07-31T04:19:39.769Z,9.57
2022-07-31T04:20:41.587Z,7.05
2022-07-31T04:21:43.332Z,7.07
2022-07-31T04:22:45.531Z,7.50
2022-07-31T04:23:51.166Z,6.70
2022-07-31T04:24:53.034Z,7.13
2022-07-31T04:25:54.891Z,7.32
2022-07-31T04:26:57.427Z,8.10
2022-07-31T04:28:01.365Z,6.88
2022-07-31T04:29:03.176Z,6.80
2022-07-31T04:30:05.459Z,7.13
2022-07-31T04:31:07.261Z,6.72
2022-07-31T04:32:08.984Z,7.00
2022-07-31T04:33:10.743Z,6.43
2022-07-31T04:34:12.534Z,6.43
2022-07-31T04:35:14.325Z,6.57
2022-07-31T04:36:29.891Z,6.28
2022-07-31T04:37:35.578Z,7.13
2022-07-31T04:38:37.337Z,8.65
2022-07-31T04:39:39.079Z,8.38
2022-07-31T04:40:40.851Z,6.50
2022-07-31T04:41:43.058Z,5.90
2022-07-31T04:42:44.878Z,7.22
2022-07-31T04:43:46.600Z,7.35
2022-07-31T04:44:48.515Z,6.60
2022-07-31T04:45:50.263Z,7.43
2022-07-31T04:46:51.973Z,7.93
2022-07-31T04:47:53.685Z,6.55
2022-07-31T04:48:55.521Z,7.13
2022-07-31T04:49:58.207Z,6.53
2022-07-31T04:51:01.772Z,6.57
2022-07-31T04:52:04.319Z,6.68
2022-07-31T04:53:06.222Z,6.60
2022-07-31T04:54:08.435Z,6.65
2022-07-31T04:55:10.263Z,6.10
2022-07-31T04:56:30.906Z,6.43
2022-07-31T04:57:32.646Z,7.25
2022-07-31T04:58:35.186Z,6.28
2022-07-31T04:59:59.503Z,6.38
2022-07-31T05:00:58.647Z,5.78
2022-07-31T05:02:00.380Z,6.35
2022-07-31T05:03:02.219Z,6.97
2022-07-31T05:04:04.545Z,5.80
2022-07-31T05:05:06.651Z,6.75
2022-07-31T05:06:12.856Z,7.43
2022-07-31T05:07:14.653Z,6.28
2022-07-31T05:08:16.350Z,6.38
2022-07-31T05:09:25.492Z,5.43
2022-07-31T05:10:46.159Z,5.93
2022-07-31T05:11:48.324Z,5.65
2022-07-31T05:12:50.048Z,6.88
2022-07-31T05:13:56.593Z,6.00
2022-07-31T05:14:58.357Z,8.30
2022-07-31T05:16:00.156Z,6.68
2022-07-31T05:17:01.909Z,5.70
2022-07-31T05:18:03.833Z,5.80
2022-07-31T05:19:06.505Z,8.27
2022-07-31T05:20:16.686Z,6.78
2022-07-31T05:21:18.959Z,6.55
2022-07-31T05:22:20.810Z,6.18
2022-07-31T05:23:22.586Z,6.38
2022-07-31T05:24:33.512Z,6.22
2022-07-31T05:25:35.780Z,7.70
2022-07-31T05:26:38.670Z,5.65
2022-07-31T05:27:41.221Z,6.38
2022-07-31T05:28:44.246Z,7.10
2022-07-31T05:29:48.459Z,6.13
2022-07-31T05:30:50.147Z,5.97
2022-07-31T05:32:00.474Z,7.05
2022-07-31T05:33:02.637Z,5.70
2022-07-31T05:34:04.403Z,7.63
2022-07-31T05:35:06.575Z,6.40
2022-07-31T05:36:09.277Z,6.13
2022-07-31T05:37:11.009Z,6.20
2022-07-31T05:38:12.786Z,6.20
2022-07-31T05:39:14.492Z,5.30
2022-07-31T05:40:16.518Z,6.35
2022-07-31T05:41:18.321Z,5.47
2022-07-31T05:42:20.067Z,7.03
2022-07-31T05:43:21.834Z,5.18
2022-07-31T05:44:24.546Z,5.70
2022-07-31T05:45:26.543Z,5.07
2022-07-31T05:46:29.050Z,5.03
2022-07-31T05:47:39.986Z,5.25
2022-07-31T05:48:43.294Z,5.60
2022-07-31T05:49:45.032Z,5.70
2022-07-31T05:50:48.344Z,5.13
2022-07-31T05:51:54.153Z,5.53
2022-07-31T05:52:55.937Z,5.22
2022-07-31T05:53:57.736Z,5.05
2022-07-31T05:54:59.456Z,4.90
2022-07-31T05:56:01.165Z,5.25
2022-07-31T05:57:02.926Z,4.68
2022-07-31T05:58:04.953Z,5.32
2022-07-31T05:59:06.910Z,4.93
2022-07-31T06:00:09.751Z,4.97
2022-07-31T06:01:13.238Z,5.15
2022-07-31T06:02:16.228Z,5.38
2022-07-31T06:03:29.734Z,5.80
2022-07-31T06:04:32.626Z,5.05
2022-07-31T06:05:34.731Z,5.45
2022-07-31T06:06:36.415Z,4.80
2022-07-31T06:07:38.132Z,6.22
2022-07-31T06:08:39.903Z,4.40
2022-07-31T06:09:41.611Z,4.63
2022-07-31T06:10:43.796Z,4.70
2022-07-31T06:11:45.530Z,6.20
2022-07-31T06:12:47.288Z,8.02
2022-07-31T06:13:49.041Z,4.45
2022-07-31T06:14:50.773Z,8.15
2022-07-31T06:15:52.696Z,5.75
2022-07-31T06:16:55.276Z,4.63
2022-07-31T06:17:57.073Z,5.55
2022-07-31T06:18:59.005Z,4.35
2022-07-31T06:20:01.115Z,4.80
2022-07-31T06:21:02.803Z,4.72
2022-07-31T06:22:05.136Z,4.63
2022-07-31T06:23:22.500Z,4.55
2022-07-31T06:24:27.565Z,6.00
2022-07-31T06:25:34.953Z,4.80
2022-07-31T06:26:40.776Z,4.03
2022-07-31T06:27:43.911Z,6.00
2022-07-31T06:28:49.791Z,4.07
2022-07-31T06:29:51.617Z,4.13
2022-07-31T06:30:53.334Z,4.10
2022-07-31T06:31:56.523Z,3.65
2022-07-31T06:32:58.249Z,3.70
2022-07-31T06:34:00.270Z,4.18
2022-07-31T06:35:02.809Z,4.05
2022-07-31T06:36:04.606Z,4.45
2022-07-31T06:37:06.306Z,4.65
2022-07-31T06:38:07.995Z,4.82
2022-07-31T06:39:09.695Z,4.80
2022-07-31T06:40:12.239Z,5.95
2022-07-31T06:41:33.189Z,3.58
2022-07-31T06:42:34.944Z,5.18
2022-07-31T06:43:36.719Z,3.70
2022-07-31T06:44:45.847Z,4.28
2022-07-31T06:45:51.655Z,4.13
2022-07-31T06:46:54.200Z,5.75
2022-07-31T06:47:56.001Z,4.90
2022-07-31T06:48:57.795Z,6.88
2022-07-31T06:49:59.556Z,7.88
2022-07-31T06:51:29.268Z,4.93
2022-07-31T06:52:22.965Z,3.95
2022-07-31T06:53:24.727Z,4.47
2022-07-31T06:54:27.084Z,6.28
2022-07-31T06:55:29.258Z,7.70
2022-07-31T06:56:31.570Z,5.95
2022-07-31T06:57:33.922Z,3.75
2022-07-31T06:58:35.622Z,4.20
2022-07-31T06:59:39.711Z,3.80
2022-07-31T07:00:43.307Z,4.65
2022-07-31T07:01:45.078Z,3.92
2022-07-31T07:02:46.799Z,5.35
2022-07-31T07:03:48.710Z,4.10
2022-07-31T07:05:06.201Z,4.55
2022-07-31T07:06:08.494Z,4.13
2022-07-31T07:07:10.188Z,5.07
2022-07-31T07:08:11.888Z,5.10
2022-07-31T07:09:13.638Z,4.20
2022-07-31T07:10:15.438Z,5.32
2022-07-31T07:11:17.772Z,4.57
2022-07-31T07:12:19.471Z,5.45
2022-07-31T07:13:26.327Z,4.88
2022-07-31T07:14:47.999Z,3.70
2022-07-31T07:15:49.738Z,4.20
2022-07-31T07:16:51.499Z,5.15
2022-07-31T07:17:53.358Z,3.72
2022-07-31T07:18:56.123Z,4.18
2022-07-31T07:19:57.967Z,4.53
2022-07-31T07:20:59.790Z,4.95
2022-07-31T07:22:01.739Z,3.55
2022-07-31T07:23:03.861Z,4.40
2022-07-31T07:24:05.957Z,4.03
2022-07-31T07:25:08.201Z,4.90
2022-07-31T07:26:10.487Z,3.90
2022-07-31T07:27:12.220Z,7.47
2022-07-31T07:28:29.403Z,4.32
2022-07-31T07:29:33.097Z,3.70
2022-07-31T07:30:35.534Z,3.65
2022-07-31T07:31:37.695Z,4.47
2022-07-31T07:32:39.416Z,5.25
2022-07-31T07:33:42.886Z,3.50
2022-07-31T07:34:44.914Z,3.88
2022-07-31T07:35:47.197Z,3.60
2022-07-31T07:36:48.953Z,3.53
2022-07-31T07:37:51.369Z,3.80
2022-07-31T07:38:55.928Z,4.72
2022-07-31T07:40:02.456Z,5.55
2022-07-31T07:41:05.968Z,4.97
2022-07-31T07:42:07.862Z,4.13
2022-07-31T07:43:09.637Z,4.20
2022-07-31T07:44:12.584Z,4.38
2022-07-31T07:45:14.651Z,3.55
2022-07-31T07:46:16.421Z,4.57
2022-07-31T07:47:18.146Z,3.85
2022-07-31T07:48:20.126Z,4.68
2022-07-31T07:49:21.913Z,3.72
2022-07-31T07:50:29.237Z,5.65
2022-07-31T07:51:31.401Z,7.13
2022-07-31T07:52:34.064Z,5.57
2022-07-31T07:53:36.870Z,5.90
2022-07-31T07:54:38.833Z,3.40
2022-07-31T07:55:40.557Z,3.78
2022-07-31T07:56:45.128Z,3.97
2022-07-31T07:57:46.850Z,3.63
2022-07-31T07:58:49.198Z,3.80
2022-07-31T07:59:50.938Z,3.88
2022-07-31T08:00:52.878Z,5.88
2022-07-31T08:01:54.746Z,3.35
2022-07-31T08:03:47.515Z,6.55
2022-07-31T08:04:18.153Z,8.55
2022-07-31T08:05:19.889Z,4.30
2022-07-31T08:06:23.286Z,7.22
2022-07-31T08:07:42.437Z,4.28
2022-07-31T08:08:45.473Z,4.05
2022-07-31T08:09:47.168Z,4.82
2022-07-31T08:10:49.092Z,5.47
2022-07-31T08:11:50.843Z,3.55
2022-07-31T08:12:54.812Z,5.10
2022-07-31T08:13:56.549Z,3.67
2022-07-31T08:14:59.700Z,3.22
2022-07-31T08:16:01.507Z,3.72
2022-07-31T08:17:03.292Z,4.82
2022-07-31T08:18:05.238Z,7.50
2022-07-31T08:19:06.980Z,3.45
2022-07-31T08:20:09.170Z,4.65
2022-07-31T08:21:10.887Z,3.30
2022-07-31T08:22:13.143Z,3.47
2022-07-31T08:23:18.211Z,3.03
2022-07-31T08:24:20.051Z,3.78
2022-07-31T08:25:21.853Z,4.28
2022-07-31T08:26:23.829Z,4.63
2022-07-31T08:27:39.922Z,3.45
2022-07-31T08:28:49.925Z,3.40
2022-07-31T08:30:02.330Z,3.35
2022-07-31T08:31:04.086Z,5.60
2022-07-31T08:32:06.685Z,3.25
2022-07-31T08:33:08.682Z,3.38
2022-07-31T08:34:10.677Z,3.80
2022-07-31T08:35:32.654Z,4.97
2022-07-31T08:36:34.421Z,5.07
2022-07-31T08:37:52.594Z,4.50
2022-07-31T08:38:58.559Z,3.95
2022-07-31T08:40:00.300Z,4.07
2022-07-31T08:41:02.132Z,4.35
2022-07-31T08:42:08.561Z,5.20
2022-07-31T08:44:00.828Z,4.70
2022-07-31T08:44:32.766Z,3.45
2022-07-31T08:45:40.378Z,3.15
2022-07-31T08:46:42.409Z,3.00
2022-07-31T08:47:48.074Z,4.85
2022-07-31T08:48:54.744Z,5.32
2022-07-31T08:49:57.959Z,3.00
2022-07-31T08:51:02.652Z,5.22
2022-07-31T08:52:05.240Z,3.55
2022-07-31T08:53:08.728Z,3.10
2022-07-31T08:54:11.422Z,5.32
2022-07-31T08:55:55.022Z,3.92
2022-07-31T08:56:35.625Z,3.13
2022-07-31T08:57:37.347Z,3.40
2022-07-31T08:58:40.098Z,3.35
2022-07-31T08:59:42.379Z,3.15
2022-07-31T09:00:44.282Z,2.85
2022-07-31T09:01:46.409Z,5.35
2022-07-31T09:02:48.288Z,4.85
2022-07-31T09:03:50.027Z,2.97
2022-07-31T09:04:52.809Z,3.33
2022-07-31T09:05:54.775Z,3.47
2022-07-31T09:06:59.935Z,2.80
2022-07-31T09:08:03.193Z,5.60
2022-07-31T09:09:10.205Z,4.18
2022-07-31T09:10:29.524Z,3.30
2022-07-31T09:11:31.873Z,4.00
2022-07-31T09:12:34.791Z,3.35
2022-07-31T09:13:37.784Z,2.60
2022-07-31T09:14:39.765Z,3.10
2022-07-31T09:15:41.734Z,5.10
2022-07-31T09:16:48.183Z,3.78
2022-07-31T09:17:53.734Z,4.22
2022-07-31T09:19:01.398Z,3.70
2022-07-31T09:20:04.483Z,3.45
2022-07-31T09:21:07.329Z,2.50
2022-07-31T09:22:23.440Z,3.03
2022-07-31T09:23:27.750Z,4.18
2022-07-31T09:24:32.394Z,2.50
2022-07-31T09:25:52.066Z,3.22
2022-07-31T09:27:17.313Z,4.43
2022-07-31T09:28:23.302Z,2.47
2022-07-31T09:29:44.339Z,5.32
2022-07-31T09:30:56.960Z,4.43
2022-07-31T09:32:08.684Z,3.13
2022-07-31T09:33:21.704Z,3.28
2022-07-31T09:34:30.805Z,3.65
2022-07-31T09:35:39.768Z,3.47
2022-07-31T09:36:43.417Z,2.53
2022-07-31T09:37:48.660Z,3.05
2022-07-31T09:38:50.899Z,3.65
2022-07-31T09:39:54.305Z,2.47
2022-07-31T09:40:57.417Z,3.05
2022-07-31T09:42:01.858Z,2.88
2022-07-31T09:43:19.929Z,2.63
2022-07-31T09:44:25.383Z,3.08
2022-07-31T09:45:28.211Z,3.22
2022-07-31T09:46:45.051Z,2.40
2022-07-31T09:47:47.743Z,3.00
2022-07-31T09:48:55.862Z,3.67
2022-07-31T09:50:04.436Z,2.58
2022-07-31T09:51:08.284Z,2.58
2022-07-31T09:52:19.123Z,2.60
2022-07-31T09:53:21.304Z,2.42
2022-07-31T09:54:25.089Z,2.63
2022-07-31T09:55:27.502Z,4.35
2022-07-31T09:56:34.336Z,3.60
2022-07-31T09:57:38.029Z,7.25
2022-07-31T09:58:42.535Z,2.83
2022-07-31T09:59:44.349Z,4.07
2022-07-31T10:00:48.108Z,2.55
2022-07-31T10:01:50.158Z,3.22
2022-07-31T10:02:55.299Z,2.55
2022-07-31T10:04:01.438Z,2.63
2022-07-31T10:05:05.193Z,2.90
2022-07-31T10:06:15.996Z,3.10
2022-07-31T10:07:24.429Z,4.13
2022-07-31T10:08:36.949Z,3.00
2022-07-31T10:09:41.774Z,4.93
2022-07-31T10:10:44.363Z,2.13
2022-07-31T10:11:49.690Z,2.63
2022-07-31T10:12:55.327Z,3.08
2022-07-31T10:14:00.999Z,4.07
2022-07-31T10:15:09.287Z,2.95
2022-07-31T10:16:11.969Z,4.10
2022-07-31T10:17:17.193Z,4.03
2022-07-31T10:18:35.544Z,2.40
2022-07-31T10:19:41.475Z,2.22
2022-07-31T10:20:49.289Z,4.03
2022-07-31T10:22:03.387Z,2.75
2022-07-31T10:23:19.314Z,4.05
2022-07-31T10:24:27.749Z,2.80
2022-07-31T10:25:30.425Z,3.83
2022-07-31T10:26:57.824Z,3.80
2022-07-31T10:27:57.107Z,2.20
2022-07-31T10:28:59.379Z,4.13
2022-07-31T10:30:01.919Z,2.45
2022-07-31T10:31:04.474Z,2.13
2022-07-31T10:32:07.773Z,3.20
2022-07-31T10:33:40.771Z,3.03
2022-07-31T10:34:34.922Z,4.15
2022-07-31T10:35:45.647Z,1.90
2022-07-31T10:37:15.521Z,2.45
2022-07-31T10:38:33.500Z,2.15
2022-07-31T10:39:54.456Z,2.17
2022-07-31T10:41:05.816Z,2.78
2022-07-31T10:42:25.710Z,2.97
2022-07-31T10:43:54.609Z,2.78
2022-07-31T10:45:11.057Z,2.45
2022-07-31T10:46:12.945Z,1.85
2022-07-31T10:47:15.877Z,2.75
2022-07-31T10:48:18.072Z,3.78
2022-07-31T10:49:19.936Z,5.03
2022-07-31T10:50:24.023Z,3.20
2022-07-31T10:51:26.681Z,2.28
2022-07-31T10:52:33.535Z,5.75
2022-07-31T10:53:51.318Z,2.63
2022-07-31T10:54:58.454Z,1.98
2022-07-31T10:56:05.054Z,3.15
2022-07-31T10:57:07.386Z,2.10
2022-07-31T10:58:15.771Z,3.75
2022-07-31T10:59:28.949Z,5.40
2022-07-31T11:00:30.700Z,2.25
2022-07-31T11:01:32.476Z,2.97
2022-07-31T11:02:35.434Z,2.30
2022-07-31T11:03:46.874Z,2.28
2022-07-31T11:04:48.610Z,2.78
2022-07-31T11:06:01.004Z,3.08
2022-07-31T11:07:15.075Z,2.20
2022-07-31T11:08:16.798Z,2.38
2022-07-31T11:09:29.656Z,2.58
2022-07-31T11:10:33.978Z,3.35
2022-07-31T11:11:37.055Z,3.83
2022-07-31T11:12:39.612Z,2.40
2022-07-31T11:13:55.257Z,2.47
2022-07-31T11:14:58.188Z,3.10
2022-07-31T11:16:06.526Z,2.15
2022-07-31T11:17:08.534Z,2.30
2022-07-31T11:18:25.332Z,3.35
2022-07-31T11:19:41.588Z,3.60
2022-07-31T11:20:47.013Z,2.20
2022-07-31T11:21:48.784Z,2.35
2022-07-31T11:22:58.852Z,2.55
2022-07-31T11:24:02.951Z,2.53
2022-07-31T11:25:07.063Z,3.70
2022-07-31T11:26:09.538Z,2.00
2022-07-31T11:27:11.266Z,2.47
2022-07-31T11:28:14.692Z,3.47
2022-07-31T11:30:01.030Z,3.15
2022-07-31T11:30:53.828Z,2.15
2022-07-31T11:31:56.290Z,2.92
2022-07-31T11:32:58.000Z,3.20
2022-07-31T11:34:04.064Z,2.00
2022-07-31T11:35:07.487Z,3.08
2022-07-31T11:36:12.385Z,4.75
2022-07-31T11:37:17.645Z,3.55
2022-07-31T11:38:19.462Z,2.50
2022-07-31T11:39:34.968Z,6.93
2022-07-31T11:40:38.837Z,4.70
2022-07-31T11:41:44.600Z,2.08
2022-07-31T11:42:59.758Z,2.17
2022-07-31T11:44:06.700Z,2.53
2022-07-31T11:45:11.037Z,2.42
2022-07-31T11:46:25.015Z,1.70
2022-07-31T11:48:11.350Z,3.67
2022-07-31T11:49:01.941Z,2.78
2022-07-31T11:50:04.436Z,1.95
2022-07-31T11:51:06.185Z,2.47
2022-07-31T11:52:32.702Z,3.08
2022-07-31T11:53:41.841Z,3.22
2022-07-31T11:54:43.609Z,3.78
2022-07-31T11:55:49.919Z,1.70
2022-07-31T11:56:55.576Z,2.70
2022-07-31T11:57:57.682Z,2.47
2022-07-31T11:58:59.542Z,3.15
2022-07-31T12:00:27.074Z,2.53
2022-07-31T12:01:31.185Z,3.40
2022-07-31T12:02:33.142Z,2.28
2022-07-31T12:03:37.561Z,3.45
2022-07-31T12:04:40.570Z,1.60
2022-07-31T12:05:50.862Z,2.63
2022-07-31T12:06:57.329Z,1.52
2022-07-31T12:07:59.347Z,1.80
2022-07-31T12:09:03.616Z,2.80
2022-07-31T12:10:05.849Z,3.13
2022-07-31T12:11:09.418Z,2.03
2022-07-31T12:12:12.616Z,3.38
2022-07-31T12:13:18.225Z,4.32
2022-07-31T12:14:34.585Z,3.00
2022-07-31T12:15:36.304Z,3.33
2022-07-31T12:16:41.837Z,4.32
2022-07-31T12:17:43.737Z,4.30
2022-07-31T12:18:53.765Z,3.92
2022-07-31T12:20:05.896Z,1.92
2022-07-31T12:21:08.659Z,2.45
2022-07-31T12:22:20.049Z,3.88
2022-07-31T12:23:40.552Z,3.22
2022-07-31T12:24:43.918Z,2.08
2022-07-31T12:25:46.462Z,2.97
2022-07-31T12:26:53.764Z,2.58
2022-07-31T12:27:56.248Z,1.70
2022-07-31T12:29:08.265Z,2.45
2022-07-31T12:30:17.118Z,2.60
2022-07-31T12:31:19.101Z,3.70
2022-07-31T12:32:25.983Z,2.40
2022-07-31T12:33:28.731Z,3.17
2022-07-31T12:34:38.741Z,2.15
2022-07-31T12:35:54.880Z,1.80
2022-07-31T12:37:03.924Z,1.95
2022-07-31T12:38:23.988Z,3.10
2022-07-31T12:39:53.747Z,3.22
2022-07-31T12:40:50.915Z,1.73
2022-07-31T12:41:52.782Z,1.80
2022-07-31T12:42:55.154Z,1.85
2022-07-31T12:44:13.378Z,4.07
2022-07-31T12:45:17.804Z,1.90
2022-07-31T12:46:34.877Z,2.00
2022-07-31T12:47:36.578Z,1.70
2022-07-31T12:48:42.106Z,3.25
2022-07-31T12:49:47.493Z,2.60
2022-07-31T12:50:50.303Z,2.22
2022-07-31T12:51:51.993Z,2.10
2022-07-31T12:52:56.771Z,3.65
2022-07-31T12:53:58.673Z,2.22
2022-07-31T12:55:02.111Z,5.45
2022-07-31T12:56:04.006Z,1.85
2022-07-31T12:57:06.065Z,3.95
2022-07-31T12:58:08.000Z,2.35
2022-07-31T12:59:11.086Z,3.85
2022-07-31T13:00:13.188Z,1.98
2022-07-31T13:01:15.210Z,3.58
2022-07-31T13:02:17.329Z,2.33
2022-07-31T13:03:19.031Z,5.18
2022-07-31T13:04:20.728Z,2.20
2022-07-31T13:05:23.382Z,2.92
2022-07-31T13:06:29.077Z,2.08
2022-07-31T13:07:30.934Z,2.50
2022-07-31T13:08:33.598Z,1.70
2022-07-31T13:09:35.412Z,1.60
2022-07-31T13:10:37.167Z,2.08
2022-07-31T13:11:46.742Z,2.08
2022-07-31T13:12:50.447Z,1.65
2022-07-31T13:13:52.464Z,2.80
2022-07-31T13:14:54.160Z,2.25
2022-07-31T13:15:55.848Z,4.38
2022-07-31T13:16:57.539Z,2.17
2022-07-31T13:18:05.246Z,1.95
2022-07-31T13:19:07.933Z,2.60
2022-07-31T13:20:10.146Z,3.08
2022-07-31T13:21:18.857Z,2.75
2022-07-31T13:22:20.603Z,4.07
2022-07-31T13:23:22.400Z,1.83
2022-07-31T13:24:24.360Z,1.70
2022-07-31T13:25:27.957Z,2.05
2022-07-31T13:26:29.749Z,1.83
2022-07-31T13:27:32.269Z,3.10
2022-07-31T13:28:34.005Z,2.90
2022-07-31T13:29:36.029Z,2.05
2022-07-31T13:30:37.736Z,2.67
2022-07-31T13:31:40.210Z,2.47
2022-07-31T13:32:41.988Z,2.00
2022-07-31T13:33:43.739Z,1.70
2022-07-31T13:34:45.414Z,5.68
2022-07-31T13:35:47.150Z,3.30
2022-07-31T13:36:48.891Z,3.22
2022-07-31T13:37:50.593Z,3.20
2022-07-31T13:38:52.284Z,1.70
2022-07-31T13:39:53.989Z,2.97
2022-07-31T13:41:14.375Z,1.80
2022-07-31T13:42:16.123Z,3.35
2022-07-31T13:43:18.651Z,2.17
2022-07-31T13:44:20.435Z,2.22
2022-07-31T13:45:22.139Z,1.88
2022-07-31T13:46:24.629Z,2.60
2022-07-31T13:47:26.357Z,3.53
2022-07-31T13:48:49.261Z,2.88
2022-07-31T13:49:50.990Z,2.85
2022-07-31T13:50:52.763Z,1.80
2022-07-31T13:51:54.749Z,2.25
2022-07-31T13:52:58.644Z,2.42
2022-07-31T13:54:00.708Z,4.32
2022-07-31T13:55:02.401Z,2.17
2022-07-31T13:56:04.584Z,2.72
2022-07-31T13:57:06.897Z,3.78
2022-07-31T13:58:08.709Z,1.63
2022-07-31T13:59:12.195Z,2.75
2022-07-31T14:00:14.546Z,2.25
2022-07-31T14:01:16.321Z,2.35
2022-07-31T14:02:18.295Z,5.03
2022-07-31T14:03:21.328Z,1.73
2022-07-31T14:04:23.814Z,2.97
2022-07-31T14:05:27.492Z,4.22
2022-07-31T14:06:29.574Z,2.65
2022-07-31T14:07:48.109Z,1.98
2022-07-31T14:08:53.564Z,2.33
2022-07-31T14:09:55.728Z,2.50
2022-07-31T14:10:57.871Z,1.70
2022-07-31T14:11:59.580Z,1.67
2022-07-31T14:13:06.439Z,1.52
2022-07-31T14:14:08.618Z,1.63
2022-07-31T14:15:10.717Z,1.90
2022-07-31T14:16:12.456Z,3.58
2022-07-31T14:17:14.176Z,2.97
2022-07-31T14:18:16.048Z,5.25
2022-07-31T14:19:17.839Z,1.92
2022-07-31T14:20:19.821Z,2.22
2022-07-31T14:21:21.532Z,2.65
2022-07-31T14:22:23.899Z,3.45
2022-07-31T14:23:34.344Z,4.10
2022-07-31T14:24:40.798Z,3.22